Time;durP1;ratioP1;P1;durP2;ratioP2;P2;SDS_P1;SDS_P2;PMS_P1;PMS_P2;Temp;Humidity;BMP_temperature;BMP_pressure;BME280_temperature;BME280_humidity;BME280_pressure;Samples;Min_cycle;Max_cycle;Signal;HPM_P1;HPM_P2
2022/03/22 00:00:07;;;;;;;54.92;31.15;;;7.00;99.90;;;;;;5095740;28;20110;-74
2022/03/22 00:02:32;;;;;;;49.72;30.65;;;7.10;99.90;;;;;;5095765;28;20111;-74
2022/03/22 00:04:58;;;;;;;57.50;32.70;;;7.10;99.90;;;;;;5094329;28;20119;-73
2022/03/22 00:07:24;;;;;;;55.72;30.65;;;7.10;99.90;;;;;;5094316;28;20432;-73
2022/03/22 00:09:49;;;;;;;52.45;31.70;;;7.00;99.90;;;;;;5094386;28;20016;-74
2022/03/22 00:12:16;;;;;;;52.10;30.88;;;6.90;99.90;;;;;;5094369;28;20028;-74
2022/03/22 00:14:43;;;;;;;54.35;29.83;;;6.90;99.90;;;;;;5094315;28;20398;-73
2022/03/22 00:17:09;;;;;;;55.42;30.50;;;6.90;99.90;;;;;;5094448;28;20482;-74
2022/03/22 00:19:34;;;;;;;51.55;29.38;;;6.80;99.90;;;;;;5095298;28;20032;-74
2022/03/22 00:22:02;;;;;;;57.50;30.48;;;6.80;99.90;;;;;;5095106;28;20040;-73
2022/03/22 00:24:28;;;;;;;50.95;28.98;;;6.80;99.90;;;;;;5094121;28;20367;-73
2022/03/22 00:26:53;;;;;;;51.42;28.38;;;6.70;99.90;;;;;;5077458;28;20078;-74
2022/03/22 00:29:19;;;;;;;46.58;28.23;;;6.70;99.90;;;;;;5095073;28;20020;-74
2022/03/22 00:31:44;;;;;;;47.25;29.13;;;6.60;99.90;;;;;;5095117;28;20036;-74
2022/03/22 00:34:13;;;;;;;49.83;28.73;;;6.60;99.90;;;;;;5095065;28;20095;-73
2022/03/22 00:36:40;;;;;;;53.58;31.17;;;6.60;99.90;;;;;;5093731;28;20397;-74
2022/03/22 00:39:05;;;;;;;55.33;32.70;;;6.60;99.90;;;;;;5093886;28;20066;-74
2022/03/22 00:41:31;;;;;;;55.60;31.50;;;6.50;99.90;;;;;;5093475;28;20024;-74
2022/03/22 00:43:57;;;;;;;49.63;28.33;;;6.50;99.90;;;;;;5094901;28;20048;-74
2022/03/22 00:46:22;;;;;;;53.83;28.88;;;6.40;99.90;;;;;;5095123;28;20024;-75
2022/03/22 00:48:48;;;;;;;55.00;30.58;;;6.40;99.90;;;;;;5094743;28;20020;-74
2022/03/22 00:51:14;;;;;;;53.88;29.10;;;6.30;99.90;;;;;;5093487;28;20046;-73
2022/03/22 00:53:41;;;;;;;49.75;28.55;;;6.40;99.90;;;;;;5076639;28;20367;-74
2022/03/22 00:56:07;;;;;;;53.00;29.60;;;6.50;99.90;;;;;;5093570;28;20020;-74
2022/03/22 00:58:32;;;;;;;50.17;28.85;;;6.50;99.90;;;;;;5094657;28;20024;-74
2022/03/22 01:00:59;;;;;;;48.67;28.25;;;6.50;99.90;;;;;;5094539;28;20042;-74
2022/03/22 01:03:27;;;;;;;51.30;28.98;;;6.50;99.90;;;;;;5076524;28;20051;-74
2022/03/22 01:05:52;;;;;;;47.60;28.83;;;6.50;99.90;;;;;;5093196;28;20024;-74
2022/03/22 01:08:18;;;;;;;51.80;28.38;;;6.50;99.90;;;;;;5093429;28;20377;-74
2022/03/22 01:10:51;;;;;;;50.63;28.75;;;6.50;99.90;;;;;;5093084;28;20024;-74
2022/03/22 01:13:18;;;;;;;52.60;29.15;;;6.50;99.90;;;;;;5093226;28;20024;-74
2022/03/22 01:15:43;;;;;;;45.85;27.63;;;6.50;99.90;;;;;;5093199;28;20028;-74
2022/03/22 01:18:11;;;;;;;45.95;27.73;;;6.50;99.90;;;;;;5093105;28;20505;-74
2022/03/22 01:20:39;;;;;;;45.05;26.60;;;6.50;99.90;;;;;;5093877;28;20073;-73
2022/03/22 01:23:07;;;;;;;47.50;26.55;;;6.40;99.90;;;;;;5094192;28;20470;-74
2022/03/22 01:25:35;;;;;;;45.97;26.48;;;6.40;99.90;;;;;;5094204;28;20497;-74
2022/03/22 01:28:03;;;;;;;49.70;27.10;;;6.40;99.90;;;;;;5092895;28;20089;-73
2022/03/22 01:30:29;;;;;;;49.40;28.88;;;6.30;99.90;;;;;;5093600;28;20024;-73
2022/03/22 01:32:55;;;;;;;51.53;27.55;;;6.30;99.90;;;;;;5094136;28;20047;-74
2022/03/22 01:35:23;;;;;;;46.97;28.02;;;6.20;99.90;;;;;;5092708;28;20024;-74
2022/03/22 01:37:48;;;;;;;50.55;29.17;;;6.10;99.90;;;;;;5093878;28;20027;-74
2022/03/22 01:40:17;;;;;;;51.00;29.50;;;6.10;99.90;;;;;;5092620;28;20021;-74
2022/03/22 01:42:42;;;;;;;48.92;27.08;;;6.10;99.90;;;;;;5092660;28;20107;-74
2022/03/22 01:45:09;;;;;;;44.17;26.10;;;6.00;99.90;;;;;;5093772;28;20454;-73
2022/03/22 01:47:36;;;;;;;47.60;27.92;;;6.00;99.90;;;;;;5092630;28;20493;-73
2022/03/22 01:50:03;;;;;;;44.88;26.63;;;6.00;99.90;;;;;;5092528;28;20020;-73
2022/03/22 01:52:31;;;;;;;51.80;28.25;;;6.00;99.90;;;;;;5093733;28;20382;-73
2022/03/22 01:54:57;;;;;;;48.75;27.67;;;6.00;99.90;;;;;;5092349;28;20016;-73
2022/03/22 01:57:23;;;;;;;54.50;29.00;;;6.00;99.90;;;;;;5093525;28;20077;-74
2022/03/22 01:59:50;;;;;;;51.15;29.35;;;6.10;99.90;;;;;;5093573;28;20544;-74
2022/03/22 02:07:50;;;;;;;54.88;28.60;;;5.90;99.90;;;;;;5092272;28;20381;-73
2022/03/22 02:10:17;;;;;;;49.78;28.48;;;5.90;99.90;;;;;;5093475;28;20553;-74
2022/03/22 02:12:44;;;;;;;54.67;30.30;;;5.80;99.90;;;;;;5092096;28;20022;-73
2022/03/22 02:15:11;;;;;;;49.50;28.23;;;5.90;99.90;;;;;;5075394;28;20035;-73
2022/03/22 02:17:38;;;;;;;54.25;30.40;;;5.80;99.90;;;;;;5075427;28;20020;-73
2022/03/22 02:20:03;;;;;;;54.67;30.02;;;5.80;99.90;;;;;;5093130;28;20027;-73
2022/03/22 02:22:35;;;;;;;50.83;29.45;;;5.80;99.90;;;;;;5093413;28;20028;-73
2022/03/22 02:25:00;;;;;;;57.72;29.63;;;5.80;99.90;;;;;;5075364;28;20541;-73
2022/03/22 02:27:27;;;;;;;53.63;28.85;;;6.00;99.90;;;;;;5075218;28;20112;-73
2022/03/22 02:29:52;;;;;;;52.15;28.48;;;6.00;99.90;;;;;;5093130;28;20017;-73
2022/03/22 02:32:24;;;;;;;50.60;29.55;;;6.00;99.90;;;;;;5093191;28;20039;-73
2022/03/22 02:34:50;;;;;;;51.03;27.88;;;5.90;99.90;;;;;;5093317;28;20413;-74
2022/03/22 02:37:15;;;;;;;51.85;27.75;;;5.80;99.90;;;;;;5075031;28;20039;-74
2022/03/22 02:39:41;;;;;;;49.80;28.23;;;5.80;99.90;;;;;;5093186;28;20024;-74
2022/03/22 02:42:07;;;;;;;43.90;26.85;;;5.70;99.90;;;;;;5092346;28;20049;-74
2022/03/22 02:44:32;;;;;;;50.33;29.08;;;5.70;99.90;;;;;;5095946;28;20355;-74
2022/03/22 02:46:58;;;;;;;48.50;27.88;;;5.70;99.90;;;;;;5096217;28;20117;-74
2022/03/22 02:49:23;;;;;;;49.42;28.00;;;5.60;99.90;;;;;;5096015;28;20355;-74
2022/03/22 02:51:49;;;;;;;49.42;28.75;;;5.60;99.90;;;;;;5079097;28;20020;-74
2022/03/22 02:54:15;;;;;;;50.50;29.30;;;5.60;99.90;;;;;;5096010;28;20024;-74
2022/03/22 02:56:41;;;;;;;51.10;29.25;;;5.50;99.90;;;;;;5095807;28;20024;-74
2022/03/22 02:59:06;;;;;;;58.83;30.85;;;5.50;99.90;;;;;;5095720;28;20034;-74
2022/03/22 03:01:32;;;;;;;53.88;29.33;;;5.40;99.90;;;;;;5097154;28;20031;-74
2022/03/22 03:04:00;;;;;;;54.63;30.17;;;5.30;99.90;;;;;;5097236;28;20028;-74
2022/03/22 03:06:28;;;;;;;52.58;28.88;;;5.20;99.90;;;;;;5097140;28;20470;-74
2022/03/22 03:08:55;;;;;;;52.45;28.90;;;5.20;99.90;;;;;;5096873;28;20473;-74
2022/03/22 03:11:20;;;;;;;54.42;28.83;;;5.20;99.90;;;;;;5096907;28;20478;-74
2022/03/22 03:14:40;;;;;;;52.10;29.92;;;5.20;99.90;;;;;;5096708;28;20104;-74
2022/03/22 03:16:32;;;;;;;50.45;29.13;;;5.20;99.90;;;;;;5095432;28;20028;-74
2022/03/22 03:18:57;;;;;;;55.53;30.08;;;5.10;99.90;;;;;;5095524;28;20026;-74
2022/03/22 03:21:23;;;;;;;56.17;30.00;;;5.10;99.90;;;;;;5094790;28;20036;-74
2022/03/22 03:23:48;;;;;;;49.33;29.27;;;5.10;99.90;;;;;;5096442;28;20099;-74
2022/03/22 03:26:14;;;;;;;54.85;30.67;;;5.10;99.90;;;;;;5096424;28;20031;-73
2022/03/22 03:28:39;;;;;;;49.53;29.55;;;5.10;99.90;;;;;;5096350;28;20364;-74
2022/03/22 03:31:04;;;;;;;54.88;28.80;;;5.00;99.90;;;;;;5096282;28;20036;-74
2022/03/22 03:33:30;;;;;;;52.05;29.17;;;5.00;99.90;;;;;;5094955;28;20395;-74
2022/03/22 03:35:56;;;;;;;52.78;28.67;;;5.00;99.90;;;;;;5094936;28;20058;-74
2022/03/22 03:38:22;;;;;;;55.40;30.05;;;4.90;99.90;;;;;;5095034;28;20024;-74
2022/03/22 03:43:32;;;;;;;50.90;28.90;;;5.00;99.90;;;;;;5095883;28;20442;-73
2022/03/22 03:48:43;;;;;;;49.20;28.80;;;5.10;99.90;;;;;;5095799;28;20078;-74
2022/03/22 03:51:09;;;;;;;52.22;28.83;;;5.00;99.90;;;;;;5095923;28;20479;-74
2022/03/22 03:53:34;;;;;;;56.15;30.40;;;5.00;99.90;;;;;;5095379;28;20028;-74
2022/03/22 03:56:00;;;;;;;53.83;30.05;;;5.00;99.90;;;;;;5095844;28;20092;-74
2022/03/22 03:58:25;;;;;;;52.50;28.75;;;5.10;99.90;;;;;;5096067;28;20024;-74
2022/03/22 04:00:51;;;;;;;50.97;28.92;;;5.10;99.90;;;;;;5095645;28;20028;-74
2022/03/22 04:03:16;;;;;;;51.03;28.40;;;5.10;99.90;;;;;;5094632;28;20024;-74
2022/03/22 04:05:43;;;;;;;50.50;27.23;;;5.00;99.90;;;;;;5095703;28;20046;-74
2022/03/22 04:08:10;;;;;;;51.47;29.13;;;4.90;99.90;;;;;;5095662;28;20042;-74
2022/03/22 04:10:35;;;;;;;51.97;27.73;;;4.80;99.90;;;;;;5095627;28;20030;-74
2022/03/22 04:13:01;;;;;;;48.60;27.85;;;4.70;99.90;;;;;;5094379;28;20393;-74
2022/03/22 04:15:27;;;;;;;45.40;28.30;;;4.60;99.90;;;;;;5094215;28;20073;-75
2022/03/22 04:17:53;;;;;;;57.08;29.40;;;4.50;99.90;;;;;;5094424;28;20050;-74
2022/03/22 04:20:20;;;;;;;55.90;31.08;;;4.50;99.90;;;;;;5093928;28;20514;-74
2022/03/22 04:22:45;;;;;;;54.45;28.90;;;4.40;99.90;;;;;;5094015;28;20031;-74
2022/03/22 04:25:11;;;;;;;55.75;30.20;;;4.40;99.90;;;;;;5095211;28;20028;-74
2022/03/22 04:33:07;;;;;;;51.97;27.23;;;4.30;99.90;;;;;;5095013;28;20020;-74
2022/03/22 04:35:33;;;;;;;47.58;27.25;;;4.20;99.90;;;;;;5095135;28;20478;-74
2022/03/22 04:37:58;;;;;;;46.70;26.58;;;4.20;99.90;;;;;;5095063;28;20028;-74
2022/03/22 04:40:25;;;;;;;57.38;30.60;;;4.20;99.90;;;;;;5093594;28;20020;-74
2022/03/22 04:42:51;;;;;;;49.03;28.30;;;4.20;99.90;;;;;;5094957;28;20028;-74
2022/03/22 04:45:17;;;;;;;56.85;30.13;;;4.30;99.90;;;;;;5094870;28;20024;-74
2022/03/22 04:47:45;;;;;;;60.03;30.88;;;4.30;99.90;;;;;;5094857;28;20548;-74
2022/03/22 04:50:11;;;;;;;60.85;31.23;;;4.30;99.90;;;;;;5094741;28;20381;-74
2022/03/22 04:58:08;;;;;;;55.22;30.38;;;4.20;99.90;;;;;;5093486;28;20020;-74
2022/03/22 05:00:34;;;;;;;57.22;31.23;;;4.20;99.90;;;;;;5093389;28;20550;-74
2022/03/22 05:03:00;;;;;;;51.05;28.85;;;4.20;99.90;;;;;;5093331;28;20016;-74
2022/03/22 05:08:11;;;;;;;56.20;29.15;;;4.20;99.90;;;;;;5093316;28;20112;-74
2022/03/22 05:10:37;;;;;;;58.45;29.80;;;4.10;99.90;;;;;;5094467;28;20047;-74
2022/03/22 05:13:04;;;;;;;57.08;31.27;;;4.10;99.90;;;;;;5093255;28;20055;-74
2022/03/22 05:15:31;;;;;;;55.47;30.00;;;4.00;99.90;;;;;;5076276;28;20394;-73
2022/03/22 05:17:56;;;;;;;50.25;28.77;;;4.00;99.90;;;;;;5094208;28;20035;-74
2022/03/22 05:20:22;;;;;;;57.53;30.90;;;4.00;99.90;;;;;;5092737;28;20040;-74
2022/03/22 05:22:48;;;;;;;55.22;29.85;;;4.00;99.90;;;;;;5092959;28;20032;-74
2022/03/22 05:25:14;;;;;;;52.28;30.45;;;4.00;99.90;;;;;;5092864;28;20236;-74
2022/03/22 05:27:40;;;;;;;54.05;29.65;;;3.90;99.90;;;;;;5094120;28;20529;-74
2022/03/22 05:30:06;;;;;;;59.70;32.58;;;3.90;99.90;;;;;;5092777;28;20052;-74
2022/03/22 05:32:32;;;;;;;57.20;30.80;;;3.90;99.90;;;;;;5094100;28;20498;-73
2022/03/22 05:34:58;;;;;;;56.80;30.73;;;3.90;99.90;;;;;;5094303;28;20027;-74
2022/03/22 05:37:24;;;;;;;62.25;31.35;;;3.90;99.90;;;;;;5092699;28;20031;-74
2022/03/22 05:39:50;;;;;;;59.50;30.33;;;4.00;99.90;;;;;;5092667;28;20024;-74
2022/03/22 05:42:15;;;;;;;57.53;31.27;;;4.00;99.90;;;;;;5093805;28;20091;-74
2022/03/22 05:44:43;;;;;;;57.22;31.55;;;4.10;99.90;;;;;;5092611;28;20428;-74
2022/03/22 05:47:09;;;;;;;62.15;32.38;;;4.20;99.90;;;;;;5093796;28;20024;-74
2022/03/22 05:49:36;;;;;;;53.78;30.10;;;4.30;99.90;;;;;;5075587;28;20085;-73
2022/03/22 05:52:03;;;;;;;64.22;31.92;;;4.40;99.90;;;;;;5093634;28;20073;-74
2022/03/22 05:54:29;;;;;;;54.65;30.00;;;4.50;99.90;;;;;;5092252;28;20028;-74
2022/03/22 05:56:54;;;;;;;61.10;31.88;;;4.70;99.90;;;;;;5093567;28;20035;-74
2022/03/22 05:59:20;;;;;;;55.78;31.42;;;5.00;99.90;;;;;;5093498;28;20036;-74
2022/03/22 06:01:46;;;;;;;51.38;29.85;;;5.30;99.90;;;;;;5092159;28;20390;-74
2022/03/22 06:04:12;;;;;;;54.60;28.95;;;5.50;99.90;;;;;;5093473;28;20390;-74
2022/03/22 06:06:38;;;;;;;53.78;29.27;;;5.80;99.90;;;;;;5092366;28;20020;-73
2022/03/22 06:09:04;;;;;;;54.47;30.13;;;5.90;99.90;;;;;;5092199;28;20367;-73
2022/03/22 06:11:34;;;;;;;54.22;30.05;;;6.20;99.90;;;;;;5092193;28;20027;-74
2022/03/22 06:14:00;;;;;;;50.45;28.73;;;6.40;99.90;;;;;;5093508;28;20048;-74
2022/03/22 06:16:25;;;;;;;49.65;27.88;;;6.70;99.90;;;;;;5093131;28;20368;-74
2022/03/22 06:18:51;;;;;;;47.38;27.35;;;7.10;99.90;;;;;;5092151;28;20060;-74
2022/03/22 06:21:16;;;;;;;55.08;29.48;;;7.40;99.90;;;;;;5092958;28;20429;-74
2022/03/22 06:23:42;;;;;;;48.28;29.02;;;7.90;99.90;;;;;;5091961;28;20016;-74
2022/03/22 06:26:07;;;;;;;47.97;26.98;;;8.40;99.90;;;;;;5093254;28;20027;-74
2022/03/22 06:28:33;;;;;;;45.97;27.63;;;8.60;99.90;;;;;;5091904;28;20023;-74
2022/03/22 06:30:58;;;;;;;44.47;27.42;;;9.20;99.90;;;;;;5093149;28;20049;-75
2022/03/22 06:33:24;;;;;;;39.00;25.27;;;9.90;99.90;;;;;;5093117;28;20028;-75
2022/03/22 06:35:50;;;;;;;39.38;24.73;;;10.70;99.90;;;;;;5093154;28;20102;-75
2022/03/22 06:38:16;;;;;;;45.10;26.30;;;11.40;99.90;;;;;;5093145;28;20024;-75
2022/03/22 06:40:42;;;;;;;39.88;25.00;;;12.30;99.90;;;;;;5091753;28;20440;-75
2022/03/22 06:43:11;;;;;;;38.70;24.88;;;12.60;99.90;;;;;;5091961;28;20024;-74
2022/03/22 06:45:38;;;;;;;41.58;26.48;;;13.40;99.90;;;;;;5091929;28;20024;-75
2022/03/22 06:48:06;;;;;;;38.08;24.92;;;13.70;99.40;;;;;;5093152;28;20081;-74
2022/03/22 06:50:33;;;;;;;35.55;24.55;;;13.80;99.00;;;;;;5093166;28;20028;-75
2022/03/22 06:52:59;;;;;;;37.67;25.27;;;13.70;98.70;;;;;;5091831;28;20067;-74
2022/03/22 06:55:25;;;;;;;43.45;26.52;;;14.20;96.20;;;;;;5091886;28;20457;-75
2022/03/22 06:57:52;;;;;;;39.92;26.42;;;14.50;96.60;;;;;;5092994;28;20477;-74
2022/03/22 07:00:19;;;;;;;38.33;25.02;;;14.50;95.10;;;;;;5092909;28;20020;-75
2022/03/22 07:02:46;;;;;;;39.13;26.30;;;14.70;95.70;;;;;;5092712;28;20508;-75
2022/03/22 07:05:12;;;;;;;38.30;25.73;;;15.20;92.20;;;;;;5092518;28;20024;-75
2022/03/22 07:07:38;;;;;;;40.25;27.13;;;15.60;90.70;;;;;;5091459;28;20378;-74
2022/03/22 07:10:06;;;;;;;41.15;26.10;;;15.30;91.60;;;;;;5092814;28;20497;-74
2022/03/22 07:12:32;;;;;;;41.75;26.67;;;15.40;90.90;;;;;;5074616;28;20030;-75
2022/03/22 07:14:57;;;;;;;43.03;26.30;;;15.70;90.50;;;;;;5092592;28;20106;-74
2022/03/22 07:17:23;;;;;;;43.10;25.42;;;15.50;88.90;;;;;;5091187;28;20024;-75
2022/03/22 07:19:48;;;;;;;35.40;25.52;;;16.00;87.50;;;;;;5092674;28;20415;-75
2022/03/22 07:22:14;;;;;;;38.25;25.02;;;17.00;82.70;;;;;;5092342;28;20406;-75
2022/03/22 07:24:40;;;;;;;39.17;26.65;;;17.10;79.50;;;;;;5092708;28;20021;-75
2022/03/22 07:27:06;;;;;;;38.42;25.58;;;16.90;80.00;;;;;;5092708;28;20074;-74
2022/03/22 07:29:32;;;;;;;37.08;25.65;;;17.10;80.00;;;;;;5095340;28;20028;-75
2022/03/22 07:31:59;;;;;;;41.42;24.98;;;17.00;77.80;;;;;;5096153;28;20032;-75
2022/03/22 07:34:24;;;;;;;34.30;25.60;;;18.30;73.60;;;;;;5096290;28;20474;-74
2022/03/22 07:36:54;;;;;;;36.13;24.83;;;18.40;71.00;;;;;;5096205;28;20031;-75
2022/03/22 07:39:22;;;;;;;35.17;23.92;;;18.50;70.00;;;;;;5094869;28;20497;-74
2022/03/22 07:41:48;;;;;;;40.70;25.40;;;18.40;70.80;;;;;;5094868;28;20020;-74
2022/03/22 07:44:13;;;;;;;34.55;24.02;;;18.50;67.50;;;;;;5096044;28;20023;-74
2022/03/22 07:46:40;;;;;;;33.53;23.95;;;18.30;67.10;;;;;;5094735;28;20028;-74
2022/03/22 07:54:39;;;;;;;34.58;24.05;;;19.40;64.10;;;;;;5095700;28;20039;-75
2022/03/22 07:57:07;;;;;;;36.17;24.25;;;18.90;64.10;;;;;;5094508;28;20390;-74
2022/03/22 07:59:33;;;;;;;35.28;23.23;;;19.10;63.00;;;;;;5094368;28;20026;-74
2022/03/22 08:01:58;;;;;;;31.08;23.20;;;19.30;61.60;;;;;;5095560;28;20103;-74
2022/03/22 08:04:24;;;;;;;28.65;22.08;;;19.00;63.50;;;;;;5077545;28;20024;-74
2022/03/22 08:06:49;;;;;;;33.63;23.20;;;19.90;58.60;;;;;;5077435;28;20382;-74
2022/03/22 08:09:15;;;;;;;29.60;22.45;;;19.90;58.00;;;;;;5095521;28;20028;-74
2022/03/22 08:11:40;;;;;;;30.83;23.42;;;19.80;57.70;;;;;;5094331;28;20028;-74
2022/03/22 08:14:06;;;;;;;29.25;22.73;;;19.30;57.50;;;;;;5094363;28;20036;-75
2022/03/22 08:16:32;;;;;;;34.33;22.80;;;19.40;59.20;;;;;;5094306;28;20481;-74
2022/03/22 08:18:57;;;;;;;33.20;21.35;;;20.10;58.40;;;;;;5095281;28;20039;-74
2022/03/22 08:21:23;;;;;;;32.40;21.77;;;20.40;56.80;;;;;;5095011;28;20043;-74
2022/03/22 08:23:49;;;;;;;35.42;22.33;;;20.20;56.30;;;;;;5095254;28;20030;-75
2022/03/22 08:26:14;;;;;;;29.13;22.10;;;20.00;55.90;;;;;;5093999;28;20095;-74
2022/03/22 08:28:42;;;;;;;30.15;22.20;;;20.70;53.70;;;;;;5093779;28;20073;-74
2022/03/22 08:31:10;;;;;;;39.08;23.02;;;20.10;55.30;;;;;;5095245;28;20060;-74
2022/03/22 08:33:36;;;;;;;30.45;21.65;;;20.40;54.50;;;;;;5095000;28;20049;-75
2022/03/22 08:36:01;;;;;;;28.20;19.05;;;20.50;52.60;;;;;;5094936;28;20409;-74
2022/03/22 08:38:27;;;;;;;30.83;20.35;;;20.40;51.50;;;;;;5093565;28;20028;-74
2022/03/22 08:40:53;;;;;;;24.98;19.00;;;20.00;51.10;;;;;;5093857;28;20482;-74
2022/03/22 08:43:19;;;;;;;26.35;20.33;;;19.90;50.00;;;;;;5094889;28;20055;-74
2022/03/22 08:45:45;;;;;;;25.33;19.15;;;18.90;52.00;;;;;;5094839;28;20048;-74
2022/03/22 08:48:11;;;;;;;22.30;18.30;;;20.20;51.00;;;;;;5094753;28;20024;-74
2022/03/22 08:50:39;;;;;;;32.70;20.40;;;20.70;47.60;;;;;;5094888;28;20016;-74
2022/03/22 08:53:05;;;;;;;23.65;17.33;;;20.70;47.20;;;;;;5094745;28;20439;-74
2022/03/22 08:55:31;;;;;;;21.85;17.50;;;20.70;44.40;;;;;;5094782;28;20386;-74
2022/03/22 08:57:56;;;;;;;20.65;17.08;;;20.20;46.70;;;;;;5094523;28;20020;-74
2022/03/22 09:00:22;;;;;;;23.15;18.10;;;20.80;44.20;;;;;;5093153;28;20385;-74
2022/03/22 09:02:50;;;;;;;24.00;16.95;;;20.80;45.70;;;;;;5093122;28;20055;-74
2022/03/22 09:08:05;;;;;;;23.90;16.73;;;20.40;43.70;;;;;;5094180;28;20099;-74
2022/03/22 09:10:32;;;;;;;23.50;16.85;;;20.30;43.40;;;;;;5094477;28;20500;-74
2022/03/22 09:12:58;;;;;;;22.77;17.55;;;20.60;43.80;;;;;;5093161;28;20098;-74
2022/03/22 09:15:26;;;;;;;21.25;16.92;;;21.30;44.80;;;;;;5094271;28;20062;-74
2022/03/22 09:17:54;;;;;;;24.80;16.55;;;21.10;42.30;;;;;;5094213;28;20021;-73
2022/03/22 09:20:20;;;;;;;20.85;16.80;;;20.90;41.60;;;;;;5092721;28;20379;-74
2022/03/22 09:22:49;;;;;;;20.15;16.95;;;21.00;42.70;;;;;;5094140;28;20076;-74
2022/03/22 09:25:15;;;;;;;24.85;16.67;;;20.20;42.90;;;;;;5094107;28;20055;-74
2022/03/22 09:27:41;;;;;;;19.67;16.20;;;20.50;45.50;;;;;;5092805;28;20035;-74
2022/03/22 09:30:08;;;;;;;24.88;16.75;;;20.80;42.80;;;;;;5092618;28;20058;-74
2022/03/22 09:32:34;;;;;;;27.35;16.65;;;20.70;41.80;;;;;;5093946;28;20020;-73
2022/03/22 09:35:01;;;;;;;27.52;17.60;;;21.60;42.40;;;;;;5092529;28;20051;-74
2022/03/22 09:37:27;;;;;;;25.77;18.00;;;21.90;40.70;;;;;;5093857;28;20095;-74
2022/03/22 09:39:54;;;;;;;22.52;17.13;;;22.00;42.80;;;;;;5093721;28;20016;-74
2022/03/22 09:42:20;;;;;;;22.23;17.55;;;22.50;40.60;;;;;;5093662;28;20024;-74
2022/03/22 09:44:50;;;;;;;23.17;16.80;;;21.50;41.20;;;;;;5092525;28;20028;-74
2022/03/22 09:47:16;;;;;;;21.90;16.75;;;21.60;41.60;;;;;;5092449;28;20020;-74
2022/03/22 09:49:41;;;;;;;25.45;16.77;;;22.10;40.80;;;;;;5092313;28;20360;-74
2022/03/22 09:52:09;;;;;;;21.83;17.13;;;22.10;41.20;;;;;;5092167;28;20507;-74
2022/03/22 09:54:35;;;;;;;22.23;17.15;;;22.30;40.40;;;;;;5093621;28;20062;-74
2022/03/22 09:57:04;;;;;;;24.08;18.13;;;22.60;40.20;;;;;;5093694;28;20016;-74
2022/03/22 09:59:34;;;;;;;23.35;17.02;;;22.50;40.80;;;;;;5092172;28;20024;-74
2022/03/22 10:02:01;;;;;;;23.63;17.65;;;22.50;40.70;;;;;;5092098;28;20504;-74
2022/03/22 10:04:39;;;;;;;21.45;17.38;;;22.50;42.00;;;;;;5093404;28;20497;-74
2022/03/22 10:07:07;;;;;;;23.70;16.98;;;21.60;41.40;;;;;;5092126;28;20024;-74
2022/03/22 10:09:36;;;;;;;22.42;17.10;;;22.00;41.80;;;;;;5092176;28;20026;-74
2022/03/22 10:12:03;;;;;;;20.52;17.05;;;22.30;39.90;;;;;;5093307;28;20470;-74
2022/03/22 10:14:36;;;;;;;22.73;17.00;;;23.00;39.80;;;;;;5092167;28;20028;-74
2022/03/22 10:17:12;;;;;;;19.67;16.03;;;22.70;39.20;;;;;;5093311;28;20028;-74
2022/03/22 10:19:43;;;;;;;22.25;17.52;;;23.10;39.50;;;;;;5093364;28;20107;-74
2022/03/22 10:22:10;;;;;;;26.27;18.42;;;22.40;40.10;;;;;;5091732;28;20051;-74
2022/03/22 10:24:55;;;;;;;22.13;16.73;;;23.10;38.20;;;;;;5093235;28;20012;-74
2022/03/22 10:27:25;;;;;;;21.60;17.00;;;23.10;37.50;;;;;;5093153;28;20020;-74
2022/03/22 10:29:52;;;;;;;22.92;16.80;;;22.40;39.20;;;;;;5091945;28;20474;-74
2022/03/22 10:32:19;;;;;;;23.75;16.83;;;22.20;40.40;;;;;;5093139;28;20016;-74
2022/03/22 10:34:45;;;;;;;24.17;18.13;;;22.10;39.60;;;;;;5093203;28;20547;-74
2022/03/22 10:37:11;;;;;;;24.00;17.00;;;22.10;40.50;;;;;;5091894;28;20054;-74
2022/03/22 10:39:41;;;;;;;23.10;16.90;;;22.60;42.10;;;;;;5091853;28;20033;-74
2022/03/22 10:42:08;;;;;;;24.52;17.63;;;22.50;38.40;;;;;;5091820;28;20022;-75
2022/03/22 10:44:36;;;;;;;23.23;17.00;;;22.10;39.50;;;;;;5091818;28;20068;-75
2022/03/22 10:47:03;;;;;;;24.13;17.90;;;22.40;40.80;;;;;;5093069;28;20031;-74
2022/03/22 10:49:29;;;;;;;27.67;19.63;;;22.40;39.50;;;;;;5091722;28;20373;-74
2022/03/22 10:51:56;;;;;;;26.23;17.75;;;22.00;39.50;;;;;;5091771;28;20398;-75
2022/03/22 10:54:22;;;;;;;24.25;19.13;;;22.30;40.60;;;;;;5093018;28;20023;-75
2022/03/22 10:56:53;;;;;;;22.65;17.85;;;22.20;39.90;;;;;;5092986;28;20028;-75
2022/03/22 10:59:21;;;;;;;32.28;19.90;;;22.60;38.70;;;;;;5092873;28;20039;-74
2022/03/22 11:01:48;;;;;;;29.20;19.83;;;22.30;39.00;;;;;;5091596;28;20020;-75
2022/03/22 11:04:16;;;;;;;28.50;19.00;;;22.20;41.10;;;;;;5095270;28;20539;-75
2022/03/22 11:06:43;;;;;;;25.45;17.73;;;22.50;39.90;;;;;;5095525;28;20502;-75
2022/03/22 11:09:09;;;;;;;25.70;18.52;;;22.80;39.80;;;;;;5096870;28;20062;-75
2022/03/22 11:11:35;;;;;;;26.90;19.17;;;22.50;39.60;;;;;;5095438;28;20024;-75
2022/03/22 11:14:02;;;;;;;27.75;18.65;;;22.70;40.10;;;;;;5096641;28;20020;-75
2022/03/22 11:16:31;;;;;;;26.30;18.85;;;22.80;40.30;;;;;;5096586;28;20024;-75
2022/03/22 11:19:01;;;;;;;24.90;17.85;;;22.80;41.10;;;;;;5096557;28;20024;-75
2022/03/22 11:21:28;;;;;;;22.80;18.45;;;23.30;39.30;;;;;;5094995;28;20043;-74
2022/03/22 11:24:12;;;;;;;25.05;18.42;;;21.50;41.90;;;;;;5095227;28;20020;-74
2022/03/22 11:26:43;;;;;;;28.05;18.90;;;21.90;42.30;;;;;;5095398;28;20020;-75
2022/03/22 11:29:12;;;;;;;31.38;18.55;;;22.10;41.00;;;;;;5078147;28;20028;-75
2022/03/22 11:31:39;;;;;;;34.00;19.95;;;21.80;41.50;;;;;;5094962;28;20028;-75
2022/03/22 11:34:09;;;;;;;28.20;18.83;;;21.80;41.90;;;;;;5095042;28;20111;-75
2022/03/22 11:36:45;;;;;;;30.08;19.67;;;21.30;42.70;;;;;;5095041;28;20046;-75
2022/03/22 11:39:16;;;;;;;29.48;18.83;;;21.30;42.60;;;;;;5078478;28;20118;-75
2022/03/22 11:42:15;;;;;;;24.00;17.60;;;20.80;43.30;;;;;;5094828;28;20028;-75
2022/03/22 11:44:36;;;;;;;26.10;18.10;;;21.00;43.60;;;;;;5094941;28;20024;-74
2022/03/22 11:47:07;;;;;;;29.27;18.50;;;21.00;42.80;;;;;;5095377;28;20381;-75
2022/03/22 11:50:01;;;;;;;32.13;17.35;;;20.90;43.90;;;;;;5095041;28;20016;-75
2022/03/22 11:52:39;;;;;;;28.27;17.65;;;20.70;44.20;;;;;;5094781;28;20047;-75
2022/03/22 11:55:09;;;;;;;25.58;17.38;;;20.40;45.40;;;;;;5094640;28;20431;-75
2022/03/22 12:00:46;;;;;;;29.45;16.77;;;20.40;45.30;;;;;;5111190;27;20351;-74
2022/03/22 12:03:13;;;;;;;28.17;14.85;;;19.80;45.50;;;;;;5110903;28;20016;-74
2022/03/22 12:05:39;;;;;;;30.33;15.60;;;19.60;45.10;;;;;;5092798;28;20028;-74
2022/03/22 12:08:07;;;;;;;23.92;14.10;;;19.60;45.20;;;;;;5110936;28;20020;-74
2022/03/22 12:10:32;;;;;;;30.52;14.80;;;20.00;44.80;;;;;;5110876;28;20031;-74
2022/03/22 12:12:58;;;;;;;26.05;12.75;;;20.10;44.30;;;;;;5109528;28;20424;-75
2022/03/22 12:15:24;;;;;;;23.85;13.95;;;20.00;43.80;;;;;;5110883;28;20461;-74
2022/03/22 12:17:50;;;;;;;20.90;14.52;;;19.70;45.30;;;;;;5110733;28;20104;-74
2022/03/22 12:20:19;;;;;;;27.30;14.02;;;20.00;44.30;;;;;;5109316;28;20028;-74
2022/03/22 12:22:49;;;;;;;23.08;13.02;;;20.00;46.60;;;;;;5110634;28;20019;-74
2022/03/22 12:25:18;;;;;;;23.10;12.18;;;19.90;43.00;;;;;;5092468;28;20024;-74
2022/03/22 12:27:54;;;;;;;22.70;14.07;;;19.50;43.60;;;;;;5110463;28;20031;-74
2022/03/22 12:30:23;;;;;;;32.75;14.73;;;19.50;43.70;;;;;;5110538;28;20482;-74
2022/03/22 12:32:51;;;;;;;24.33;14.15;;;19.20;44.80;;;;;;5109341;28;20069;-74
2022/03/22 12:35:17;;;;;;;26.67;13.98;;;19.10;45.20;;;;;;5110428;28;20024;-75
2022/03/22 12:37:43;;;;;;;25.70;13.05;;;19.50;45.10;;;;;;5110320;28;20020;-74
2022/03/22 12:40:09;;;;;;;24.73;12.50;;;19.50;44.50;;;;;;5110265;28;20028;-74
2022/03/22 12:42:35;;;;;;;20.63;12.57;;;19.30;43.20;;;;;;5092127;28;20024;-74
2022/03/22 12:45:01;;;;;;;29.48;14.75;;;19.60;44.10;;;;;;5091924;28;20374;-74
2022/03/22 12:47:27;;;;;;;25.00;13.57;;;19.80;44.40;;;;;;5110200;28;20016;-74
2022/03/22 12:49:53;;;;;;;23.52;13.77;;;19.60;45.60;;;;;;5110153;28;20024;-74
2022/03/22 12:52:18;;;;;;;28.23;15.90;;;19.60;43.90;;;;;;5108797;28;20030;-74
2022/03/22 12:54:45;;;;;;;20.58;13.02;;;19.40;44.20;;;;;;5108808;28;20042;-74
2022/03/22 12:57:14;;;;;;;20.60;13.60;;;19.70;44.80;;;;;;5109984;28;20046;-74
2022/03/22 12:59:40;;;;;;;23.23;13.77;;;19.90;43.40;;;;;;5108202;28;20044;-74
2022/03/22 13:02:07;;;;;;;24.23;14.27;;;20.00;45.20;;;;;;5109800;28;20092;-74
2022/03/22 13:04:46;;;;;;;19.15;13.57;;;19.70;43.60;;;;;;5109705;28;20023;-74